createdAt,value
2022-12-29T00:00:23.469Z,99746.03
2022-12-29T00:02:54.583Z,99754.47
2022-12-29T00:05:33.355Z,99764.28
2022-12-29T00:08:05.260Z,99760.16
2022-12-29T00:10:38.128Z,99744.03
2022-12-29T00:13:37.598Z,99747.56
2022-12-29T00:16:10.558Z,99759.97
2022-12-29T00:18:41.686Z,99759.88
2022-12-29T00:21:32.244Z,99760.16
2022-12-29T00:24:26.541Z,99762.78
2022-12-29T00:27:18.370Z,99767.56
2022-12-29T00:30:04.550Z,99772.81
2022-12-29T00:32:57.490Z,99771.78
2022-12-29T00:35:29.599Z,99772.91
2022-12-29T00:38:27.501Z,99764.72
2022-12-29T00:41:17.664Z,99762.72
2022-12-29T00:44:04.948Z,99765.53
2022-12-29T00:46:38.364Z,99766.91
2022-12-29T00:49:39.174Z,99757.94
2022-12-29T00:52:19.044Z,99753.69
2022-12-29T00:54:53.393Z,99760.50
2022-12-29T00:57:26.768Z,99766.50
2022-12-29T00:59:57.506Z,99757.06
2022-12-29T01:02:26.454Z,99768.78
2022-12-29T01:05:10.946Z,99772.19
2022-12-29T01:07:40.194Z,99775.81
2022-12-29T01:10:14.986Z,99789.13
2022-12-29T01:12:48.500Z,99787.72
2022-12-29T01:15:26.703Z,99789.16
2022-12-29T01:18:04.124Z,99788.28
2022-12-29T01:20:45.872Z,99784.22
2022-12-29T01:23:16.773Z,99788.28
2022-12-29T01:25:52.192Z,99785.38
2022-12-29T01:28:26.158Z,99790.72
2022-12-29T01:30:57.337Z,99775.25
2022-12-29T01:33:26.818Z,99782.63
2022-12-29T01:36:04.561Z,99790.81
2022-12-29T01:38:36.323Z,99785.41
2022-12-29T01:41:07.478Z,99792.91
2022-12-29T01:43:42.968Z,99790.84
2022-12-29T01:46:19.037Z,99782.72
2022-12-29T01:48:56.735Z,99786.78
2022-12-29T01:51:31.032Z,99775.78
2022-12-29T01:54:08.753Z,99777.03
2022-12-29T01:56:40.323Z,99778.22
2022-12-29T01:59:21.152Z,99776.47
2022-12-29T02:01:51.674Z,99771.59
2022-12-29T02:04:32.847Z,99766.75
2022-12-29T02:07:11.433Z,99770.50
2022-12-29T02:09:40.033Z,99754.63
2022-12-29T02:12:12.037Z,99751.28
2022-12-29T02:14:49.217Z,99749.00
2022-12-29T02:17:28.204Z,99755.16
2022-12-29T02:20:38.711Z,99740.38
2022-12-29T02:23:39.694Z,99735.16
2022-12-29T02:26:28.196Z,99727.56
2022-12-29T02:29:23.407Z,99729.59
2022-12-29T02:32:08.512Z,99728.56
2022-12-29T02:34:45.554Z,99729.78
2022-12-29T02:37:24.157Z,99728.00
2022-12-29T02:40:03.564Z,99726.44
2022-12-29T02:42:38.400Z,99726.53
2022-12-29T02:45:12.702Z,99715.66
2022-12-29T02:47:50.723Z,99719.19
2022-12-29T02:50:30.252Z,99733.25
2022-12-29T02:53:07.764Z,99723.50
2022-12-29T02:55:37.311Z,99733.66
2022-12-29T02:58:21.385Z,99732.13
2022-12-29T03:01:34.507Z,99725.72
2022-12-29T03:04:29.040Z,99727.56
2022-12-29T03:07:04.164Z,99729.16
2022-12-29T03:09:41.848Z,99735.38
2022-12-29T03:12:29.649Z,99733.19
2022-12-29T03:15:20.755Z,99724.75
2022-12-29T03:17:55.758Z,99721.19
2022-12-29T03:20:43.936Z,99730.81
2022-12-29T03:23:13.038Z,99730.63
2022-12-29T03:25:50.179Z,99733.00
2022-12-29T03:28:35.625Z,99725.72
2022-12-29T03:31:16.602Z,99731.31
2022-12-29T03:33:48.986Z,99719.69
2022-12-29T03:36:31.207Z,99731.53
2022-12-29T03:39:04.951Z,99734.84
2022-12-29T03:41:45.800Z,99735.91
2022-12-29T03:44:20.517Z,99727.44
2022-12-29T03:46:49.696Z,99730.97
2022-12-29T03:49:19.967Z,99724.13
2022-12-29T03:51:55.205Z,99730.09
2022-12-29T03:54:28.385Z,99733.72
2022-12-29T03:56:59.461Z,99723.13
2022-12-29T04:00:14.231Z,99727.41
2022-12-29T04:02:52.123Z,99732.44
2022-12-29T04:05:26.137Z,99722.19
2022-12-29T04:07:58.568Z,99724.75
2022-12-29T04:10:27.271Z,99734.94
2022-12-29T04:13:06.751Z,99730.03
2022-12-29T04:15:38.524Z,99734.84
2022-12-29T04:18:08.217Z,99729.84
2022-12-29T04:20:51.578Z,99730.03
2022-12-29T04:23:21.609Z,99726.41
2022-12-29T04:25:53.914Z,99727.41
2022-12-29T04:28:22.394Z,99721.81
2022-12-29T04:31:15.872Z,99721.75
2022-12-29T04:33:50.402Z,99720.50
2022-12-29T04:36:27.778Z,99743.63
2022-12-29T04:39:05.888Z,99744.84
2022-12-29T04:41:48.672Z,99737.53
2022-12-29T04:44:31.337Z,99735.84
2022-12-29T04:47:15.148Z,99719.97
2022-12-29T04:49:50.520Z,99741.69
2022-12-29T04:52:56.684Z,99740.09
2022-12-29T04:55:33.611Z,99730.84
2022-12-29T04:58:16.323Z,99721.69
2022-12-29T05:00:50.249Z,99742.47
2022-12-29T05:03:31.386Z,99731.78
2022-12-29T05:06:02.767Z,99737.28
2022-12-29T05:08:31.639Z,99712.44
2022-12-29T05:11:09.139Z,99740.94
2022-12-29T05:13:41.812Z,99731.88
2022-12-29T05:16:11.487Z,99725.75
2022-12-29T05:18:41.061Z,99740.34
2022-12-29T05:21:11.269Z,99739.69
2022-12-29T05:23:42.361Z,99732.91
2022-12-29T05:26:16.180Z,99734.16
2022-12-29T05:31:54.385Z,99739.19
2022-12-29T05:34:26.136Z,99736.13
2022-12-29T05:36:57.114Z,99717.28
2022-12-29T05:39:34.581Z,99736.53
2022-12-29T05:42:24.468Z,99740.88
2022-12-29T05:45:03.696Z,99739.72
2022-12-29T05:48:04.217Z,99741.88
2022-12-29T05:50:58.522Z,99734.84
2022-12-29T05:53:37.913Z,99723.72
2022-12-29T05:56:10.874Z,99743.22
2022-12-29T05:58:53.570Z,99739.47
2022-12-29T06:01:29.840Z,99747.16
2022-12-29T06:04:01.968Z,99737.00
2022-12-29T06:06:36.304Z,99739.63
2022-12-29T06:09:07.847Z,99737.56
2022-12-29T06:11:39.682Z,99738.50
2022-12-29T06:14:14.151Z,99743.53
2022-12-29T06:16:45.304Z,99745.00
2022-12-29T06:19:24.485Z,99747.75
2022-12-29T06:21:54.760Z,99740.50
2022-12-29T06:24:41.075Z,99739.69
2022-12-29T06:27:09.355Z,99752.22
2022-12-29T06:29:47.450Z,99760.72
2022-12-29T06:32:23.882Z,99750.13
2022-12-29T06:35:12.492Z,99755.47
2022-12-29T06:38:00.269Z,99740.75
2022-12-29T06:40:30.801Z,99742.47
2022-12-29T06:43:18.817Z,99759.38
2022-12-29T06:46:10.324Z,99746.22
2022-12-29T06:48:44.221Z,99772.34
2022-12-29T06:51:21.039Z,99758.25
2022-12-29T06:53:54.621Z,99754.78
2022-12-29T06:56:24.520Z,99772.44
2022-12-29T06:58:53.952Z,99768.84
2022-12-29T07:01:32.514Z,99777.28
2022-12-29T07:04:11.986Z,99777.28
2022-12-29T07:06:45.790Z,99783.91
2022-12-29T07:09:24.051Z,99763.78
2022-12-29T07:12:11.243Z,99753.06
2022-12-29T07:15:01.708Z,99775.03
2022-12-29T07:17:35.243Z,99778.03
2022-12-29T07:20:13.766Z,99776.34
2022-12-29T07:22:44.731Z,99774.69
2022-12-29T07:25:15.704Z,99768.59
2022-12-29T07:27:47.800Z,99765.28
2022-12-29T07:30:19.472Z,99761.97
2022-12-29T07:33:03.896Z,99766.22
2022-12-29T07:35:44.856Z,99767.22
2022-12-29T07:38:19.914Z,99751.19
2022-12-29T07:40:49.077Z,99759.31
2022-12-29T07:43:17.485Z,99771.28
2022-12-29T07:46:53.790Z,99766.41
2022-12-29T07:49:16.467Z,99768.81
2022-12-29T07:51:48.185Z,99765.19
2022-12-29T07:54:20.819Z,99771.03
2022-12-29T07:56:52.102Z,99763.81
2022-12-29T07:59:27.256Z,99761.44
2022-12-29T08:01:59.961Z,99769.28
2022-12-29T08:04:31.823Z,99778.81
2022-12-29T08:07:08.516Z,99783.13
2022-12-29T08:09:40.943Z,99775.16
2022-12-29T08:12:21.419Z,99771.50
2022-12-29T08:14:54.217Z,99775.91
2022-12-29T08:17:24.861Z,99771.19
2022-12-29T08:19:54.421Z,99772.25
2022-12-29T08:22:27.571Z,99767.66
2022-12-29T08:25:01.788Z,99780.78
2022-12-29T08:27:39.121Z,99757.75
2022-12-29T08:30:12.676Z,99770.91
2022-12-29T08:32:43.880Z,99774.97
2022-12-29T08:35:26.939Z,99773.88
2022-12-29T08:37:58.811Z,99775.72
2022-12-29T08:40:28.528Z,99770.91
2022-12-29T08:42:57.771Z,99774.97
2022-12-29T08:45:27.401Z,99775.91
2022-12-29T08:47:58.985Z,99790.50
2022-12-29T08:50:36.812Z,99782.78
2022-12-29T08:53:14.532Z,99762.06
2022-12-29T08:55:44.650Z,99770.41
2022-12-29T08:58:16.571Z,99757.66
2022-12-29T09:00:49.366Z,99763.47
2022-12-29T09:03:45.962Z,99763.94
2022-12-29T09:06:22.976Z,99752.28
2022-12-29T09:09:02.299Z,99757.34
2022-12-29T09:11:30.590Z,99761.09
2022-12-29T09:14:01.542Z,99767.50
2022-12-29T09:16:33.577Z,99757.13
2022-12-29T09:19:06.724Z,99754.06
2022-12-29T09:21:37.992Z,99757.34
2022-12-29T09:24:09.760Z,99743.19
2022-12-29T09:26:46.854Z,99750.13
2022-12-29T09:29:21.119Z,99755.28
2022-12-29T09:31:50.683Z,99744.50
2022-12-29T09:34:20.256Z,99744.94
2022-12-29T09:36:55.326Z,99739.94
2022-12-29T09:39:24.963Z,99733.22
2022-12-29T09:42:03.615Z,99735.09
2022-12-29T09:44:47.560Z,99728.91
2022-12-29T09:47:20.679Z,99742.41
2022-12-29T09:49:54.912Z,99738.81
2022-12-29T09:52:34.262Z,99727.63
2022-12-29T09:55:13.930Z,99737.81
2022-12-29T09:57:47.671Z,99732.97
2022-12-29T10:00:23.306Z,99726.50
2022-12-29T10:03:00.249Z,99730.84
2022-12-29T10:05:45.164Z,99724.19
2022-12-29T10:08:27.817Z,99714.50
2022-12-29T10:11:04.400Z,99710.53
2022-12-29T10:13:44.413Z,99715.41
2022-12-29T10:16:22.700Z,99716.06
2022-12-29T10:19:27.047Z,99722.47
2022-12-29T10:22:09.909Z,99717.22
2022-12-29T10:24:53.758Z,99712.72
2022-12-29T10:27:34.305Z,99699.66
2022-12-29T10:30:08.594Z,99705.19
2022-12-29T10:32:46.296Z,99709.81
2022-12-29T10:35:24.317Z,99710.91
2022-12-29T10:38:03.507Z,99709.22
2022-12-29T10:40:45.049Z,99703.88
2022-12-29T10:43:23.468Z,99706.41
2022-12-29T10:45:52.034Z,99706.59
2022-12-29T10:48:30.198Z,99709.56
2022-12-29T10:51:12.362Z,99713.59
2022-12-29T10:53:46.024Z,99706.50
2022-12-29T10:56:27.920Z,99713.19
2022-12-29T10:59:06.092Z,99710.75
2022-12-29T11:01:39.286Z,99703.38
2022-12-29T11:04:24.085Z,99700.63
2022-12-29T11:06:52.980Z,99690.63
2022-12-29T11:09:42.048Z,99692.72
2022-12-29T11:12:32.354Z,99687.41
2022-12-29T11:15:17.960Z,99694.19
2022-12-29T11:17:58.145Z,99693.44
2022-12-29T11:20:33.492Z,99693.66
2022-12-29T11:23:05.790Z,99699.13
2022-12-29T11:25:37.060Z,99693.66
2022-12-29T11:28:19.514Z,99682.13
2022-12-29T11:31:04.071Z,99681.09
2022-12-29T11:33:34.916Z,99682.63
2022-12-29T11:36:11.359Z,99687.03
2022-12-29T11:38:50.252Z,99683.69
2022-12-29T11:41:26.928Z,99681.03
2022-12-29T11:44:04.326Z,99673.44
2022-12-29T11:46:44.912Z,99675.03
2022-12-29T11:49:31.729Z,99666.28
2022-12-29T11:52:08.834Z,99664.47
2022-12-29T11:54:47.522Z,99669.00
2022-12-29T11:57:19.623Z,99663.38
2022-12-29T11:59:59.868Z,99663.09
2022-12-29T12:02:54.605Z,99664.31
2022-12-29T12:05:28.158Z,99656.41
2022-12-29T12:08:13.950Z,99653.00
2022-12-29T12:11:00.505Z,99658.28
2022-12-29T12:13:49.988Z,99649.81
2022-12-29T12:16:27.914Z,99658.13
2022-12-29T12:19:14.001Z,99650.69
2022-12-29T12:21:46.055Z,99652.44
2022-12-29T12:24:38.901Z,99641.91
2022-12-29T12:27:20.344Z,99647.00
2022-12-29T12:29:57.747Z,99640.75
2022-12-29T12:32:45.512Z,99649.63
2022-12-29T12:35:22.189Z,99654.16
2022-12-29T12:38:13.820Z,99644.50
2022-12-29T12:40:57.327Z,99632.13
2022-12-29T12:43:44.360Z,99620.91
2022-12-29T12:46:23.099Z,99628.00
2022-12-29T12:49:15.464Z,99632.34
2022-12-29T12:51:48.590Z,99626.38
2022-12-29T12:54:36.945Z,99630.34
2022-12-29T12:57:16.803Z,99633.47
2022-12-29T12:59:57.764Z,99624.94
2022-12-29T13:02:39.322Z,99630.44
2022-12-29T13:05:30.542Z,99624.59
2022-12-29T13:08:14.577Z,99616.78
2022-12-29T13:10:53.681Z,99617.97
2022-12-29T13:13:55.157Z,99620.50
2022-12-29T13:16:36.576Z,99616.81
2022-12-29T13:19:16.989Z,99620.16
2022-12-29T13:22:07.024Z,99612.25
2022-12-29T13:24:50.999Z,99616.00
2022-12-29T13:27:25.675Z,99618.44
2022-12-29T13:30:08.602Z,99624.03
2022-12-29T13:32:54.391Z,99617.16
2022-12-29T13:35:32.826Z,99619.63
2022-12-29T13:38:10.611Z,99620.47
2022-12-29T13:40:45.662Z,99627.03
2022-12-29T13:43:17.427Z,99630.34
2022-12-29T13:45:55.962Z,99626.13
2022-12-29T13:48:35.091Z,99626.63
2022-12-29T13:51:08.537Z,99633.16
2022-12-29T13:54:05.095Z,99633.47
2022-12-29T13:56:44.646Z,99638.31
2022-12-29T13:59:23.419Z,99634.84
2022-12-29T14:02:04.170Z,99636.97
2022-12-29T14:04:36.568Z,99638.50
2022-12-29T14:07:13.963Z,99631.84
2022-12-29T14:10:04.301Z,99632.41
2022-12-29T14:12:37.553Z,99637.78
2022-12-29T14:15:25.948Z,99634.94
2022-12-29T14:18:19.915Z,99638.53
2022-12-29T14:21:00.754Z,99634.94
2022-12-29T14:23:45.386Z,99627.22
2022-12-29T14:26:39.594Z,99626.19
2022-12-29T14:29:45.280Z,99640.03
2022-12-29T14:32:49.197Z,99631.16
2022-12-29T14:35:48.858Z,99635.31
2022-12-29T14:38:32.463Z,99634.88
2022-12-29T14:41:29.525Z,99639.94
2022-12-29T14:44:04.794Z,99638.69
2022-12-29T14:47:03.520Z,99637.97
2022-12-29T14:49:46.236Z,99632.78
2022-12-29T14:52:22.677Z,99625.81
2022-12-29T14:55:23.041Z,99634.88
2022-12-29T14:58:15.026Z,99635.44
2022-12-29T15:00:44.240Z,99635.16
2022-12-29T15:03:22.058Z,99626.50
2022-12-29T15:06:03.543Z,99649.81
2022-12-29T15:08:44.802Z,99654.31
2022-12-29T15:11:26.842Z,99646.06
2022-12-29T15:14:34.946Z,99645.22
2022-12-29T15:17:14.726Z,99644.91
2022-12-29T15:19:44.128Z,99642.88
2022-12-29T15:22:15.778Z,99649.44
2022-12-29T15:24:53.256Z,99647.09
2022-12-29T15:27:22.843Z,99637.84
2022-12-29T15:30:05.597Z,99619.41
2022-12-29T15:32:47.062Z,99626.31
2022-12-29T15:35:40.778Z,99627.31
2022-12-29T15:38:17.106Z,99635.91
2022-12-29T15:40:59.751Z,99635.69
2022-12-29T15:43:56.366Z,99631.47
2022-12-29T15:46:27.767Z,99625.63
2022-12-29T15:49:05.978Z,99634.19
2022-12-29T15:51:41.102Z,99640.22
2022-12-29T15:54:20.362Z,99644.84
2022-12-29T15:56:50.989Z,99639.66
2022-12-29T15:59:31.713Z,99637.88
2022-12-29T16:02:10.202Z,99636.66
2022-12-29T16:05:16.074Z,99633.75
2022-12-29T16:07:42.083Z,99621.47
2022-12-29T16:10:27.482Z,99626.00
2022-12-29T16:12:59.448Z,99637.00
2022-12-29T16:15:38.690Z,99634.97
2022-12-29T16:18:16.487Z,99627.16
2022-12-29T16:21:02.170Z,99630.34
2022-12-29T16:23:36.346Z,99629.41
2022-12-29T16:26:21.244Z,99626.13
2022-12-29T16:28:52.683Z,99626.44
2022-12-29T16:31:34.879Z,99632.50
2022-12-29T16:34:17.804Z,99644.25
2022-12-29T16:37:07.715Z,99648.38
2022-12-29T16:39:48.825Z,99659.59
2022-12-29T16:42:57.359Z,99654.34
2022-12-29T16:46:08.538Z,99651.28
2022-12-29T16:48:41.669Z,99634.84
2022-12-29T16:51:19.036Z,99627.69
2022-12-29T16:54:02.888Z,99631.19
2022-12-29T16:56:38.132Z,99642.19
2022-12-29T16:59:09.853Z,99635.41
2022-12-29T17:01:43.582Z,99639.56
2022-12-29T17:04:15.021Z,99633.44
2022-12-29T17:06:55.431Z,99631.84
2022-12-29T17:09:32.816Z,99633.75
2022-12-29T17:12:10.802Z,99628.94
2022-12-29T17:14:49.201Z,99626.38
2022-12-29T17:17:21.108Z,99626.94
2022-12-29T17:19:53.706Z,99616.22
2022-12-29T17:22:26.846Z,99623.84
2022-12-29T17:25:17.514Z,99617.13
2022-12-29T17:27:50.552Z,99624.97
2022-12-29T17:30:28.436Z,99618.75
2022-12-29T17:33:05.333Z,99623.28
2022-12-29T17:35:36.288Z,99633.84
2022-12-29T17:38:06.207Z,99628.47
2022-12-29T17:40:39.221Z,99627.88
2022-12-29T17:43:15.989Z,99629.31
2022-12-29T17:45:52.913Z,99632.88
2022-12-29T17:48:24.674Z,99619.13
2022-12-29T17:50:55.735Z,99641.53
2022-12-29T17:53:26.563Z,99642.00
2022-12-29T17:56:12.549Z,99629.84
2022-12-29T17:58:41.420Z,99623.75
2022-12-29T18:01:15.552Z,99636.84
2022-12-29T18:03:49.164Z,99645.19
2022-12-29T18:06:19.074Z,99626.56
2022-12-29T18:08:54.347Z,99622.41
2022-12-29T18:11:34.568Z,99621.50
2022-12-29T18:14:07.229Z,99619.31
2022-12-29T18:16:36.827Z,99621.22
2022-12-29T18:19:07.894Z,99626.28
2022-12-29T18:21:44.635Z,99637.75
2022-12-29T18:24:19.392Z,99629.59
2022-12-29T18:26:59.451Z,99622.72
2022-12-29T18:29:31.790Z,99619.97
2022-12-29T18:32:04.304Z,99626.69
2022-12-29T18:34:33.521Z,99624.13
2022-12-29T18:37:04.104Z,99636.16
2022-12-29T18:39:37.280Z,99626.50
2022-12-29T18:42:21.934Z,99609.88
2022-12-29T18:44:54.427Z,99612.34
2022-12-29T18:47:23.746Z,99625.06
2022-12-29T18:49:57.781Z,99635.97
2022-12-29T18:52:30.929Z,99630.88
2022-12-29T18:55:08.946Z,99621.38
2022-12-29T18:57:46.572Z,99621.25
2022-12-29T19:00:30.103Z,99621.91
2022-12-29T19:03:07.398Z,99624.22
2022-12-29T19:05:41.965Z,99625.59
2022-12-29T19:08:10.814Z,99628.88
2022-12-29T19:10:39.608Z,99623.03
2022-12-29T19:13:13.818Z,99624.94
2022-12-29T19:15:46.794Z,99617.66
2022-12-29T19:18:44.233Z,99608.53
2022-12-29T19:21:20.191Z,99606.38
2022-12-29T19:24:01.039Z,99596.31
2022-12-29T19:26:37.497Z,99595.34
2022-12-29T19:29:14.771Z,99602.91
2022-12-29T19:31:49.493Z,99610.94
2022-12-29T19:34:20.100Z,99608.88
2022-12-29T19:37:01.884Z,99598.66
2022-12-29T19:39:38.355Z,99601.38
2022-12-29T19:42:18.401Z,99599.94
2022-12-29T19:44:58.998Z,99592.53
2022-12-29T19:47:32.100Z,99596.66
2022-12-29T19:50:17.758Z,99598.00
2022-12-29T19:53:05.037Z,99589.31
2022-12-29T19:55:41.064Z,99596.03
2022-12-29T19:58:24.743Z,99599.94
2022-12-29T20:01:06.485Z,99582.03
2022-12-29T20:03:44.221Z,99589.72
2022-12-29T20:06:16.411Z,99593.56
2022-12-29T20:08:46.202Z,99589.41
2022-12-29T20:11:19.672Z,99587.72
2022-12-29T20:13:53.403Z,99581.59
2022-12-29T20:16:29.846Z,99590.19
2022-12-29T20:19:00.266Z,99586.88
2022-12-29T20:21:37.824Z,99575.41
2022-12-29T20:24:10.841Z,99584.31
2022-12-29T20:26:47.492Z,99586.75
2022-12-29T20:29:18.519Z,99591.97
2022-12-29T20:31:50.795Z,99596.94
2022-12-29T20:34:29.643Z,99598.94
2022-12-29T20:36:58.778Z,99594.78
2022-12-29T20:39:32.019Z,99590.59
2022-12-29T20:42:06.319Z,99586.28
2022-12-29T20:44:39.629Z,99583.66
2022-12-29T20:47:12.803Z,99579.16
2022-12-29T20:49:44.768Z,99580.69
2022-12-29T20:52:16.025Z,99586.41
2022-12-29T20:54:57.071Z,99584.63
2022-12-29T20:57:35.245Z,99572.00
2022-12-29T21:00:22.199Z,99576.59
2022-12-29T21:03:08.601Z,99580.91
2022-12-29T21:05:40.680Z,99570.75
2022-12-29T21:08:19.103Z,99566.63
2022-12-29T21:10:48.325Z,99569.66
2022-12-29T21:13:20.006Z,99566.84
2022-12-29T21:15:51.103Z,99575.31
2022-12-29T21:18:23.846Z,99576.44
2022-12-29T21:21:00.336Z,99582.78
2022-12-29T21:23:31.484Z,99580.25
2022-12-29T21:26:12.706Z,99582.03
2022-12-29T21:28:49.170Z,99584.00
2022-12-29T21:31:28.872Z,99590.75
2022-12-29T21:34:02.650Z,99582.03
2022-12-29T21:36:35.840Z,99590.41
2022-12-29T21:39:05.826Z,99596.16
2022-12-29T21:41:37.882Z,99589.22
2022-12-29T21:44:25.019Z,99594.97
2022-12-29T21:46:58.147Z,99595.97
2022-12-29T21:49:41.641Z,99586.38
2022-12-29T21:52:12.125Z,99588.53
2022-12-29T21:55:03.195Z,99590.31
2022-12-29T21:57:57.430Z,99591.28
2022-12-29T22:00:44.739Z,99576.94
2022-12-29T22:03:35.403Z,99582.31
2022-12-29T22:06:31.332Z,99570.19
2022-12-29T22:09:20.674Z,99578.56
2022-12-29T22:12:07.071Z,99578.09
2022-12-29T22:14:43.744Z,99571.69
2022-12-29T22:17:21.185Z,99568.31
2022-12-29T22:19:59.993Z,99566.59
2022-12-29T22:22:36.110Z,99570.72
2022-12-29T22:25:09.222Z,99566.16
2022-12-29T22:27:40.481Z,99578.69
2022-12-29T22:30:17.783Z,99580.66
2022-12-29T22:32:47.204Z,99573.50
2022-12-29T22:35:21.861Z,99573.50
2022-12-29T22:37:58.953Z,99564.84
2022-12-29T22:40:30.715Z,99565.88
2022-12-29T22:43:06.637Z,99571.31
2022-12-29T22:45:41.042Z,99570.59
2022-12-29T22:48:10.888Z,99572.47
2022-12-29T22:50:43.179Z,99568.91
2022-12-29T22:53:19.163Z,99572.84
2022-12-29T22:55:51.196Z,99566.91
2022-12-29T22:58:21.035Z,99557.31
2022-12-29T23:01:00.138Z,99556.34
2022-12-29T23:03:30.930Z,99562.13
2022-12-29T23:06:12.652Z,99569.16
2022-12-29T23:08:50.113Z,99565.03
2022-12-29T23:11:18.471Z,99566.63
2022-12-29T23:13:50.081Z,99552.91
2022-12-29T23:16:21.637Z,99548.94
2022-12-29T23:18:51.761Z,99544.00
2022-12-29T23:21:29.132Z,99551.84
2022-12-29T23:24:05.902Z,99562.47
2022-12-29T23:26:37.859Z,99544.69
2022-12-29T23:29:10.735Z,99557.63
2022-12-29T23:31:42.970Z,99561.72
2022-12-29T23:34:20.331Z,99538.03
2022-12-29T23:37:04.011Z,99549.88
2022-12-29T23:39:51.357Z,99540.13
2022-12-29T23:42:31.223Z,99535.47
2022-12-29T23:45:07.585Z,99526.84
2022-12-29T23:47:39.273Z,99532.81
2022-12-29T23:50:18.323Z,99542.06
2022-12-29T23:52:52.719Z,99528.97
2022-12-29T23:55:26.134Z,99542.59
2022-12-29T23:57:57.166Z,99540.66
